createdAt,value
2022-09-16T00:01:43.915Z,100.00
2022-09-16T00:04:32.219Z,100.00
2022-09-16T00:07:33.225Z,100.00
2022-09-16T00:10:34.242Z,100.00
2022-09-16T00:13:35.245Z,100.00
2022-09-16T00:16:24.924Z,100.00
2022-09-16T00:19:00.900Z,100.00
2022-09-16T00:21:29.113Z,100.00
2022-09-16T00:23:57.247Z,100.00
2022-09-16T00:26:24.792Z,100.00
2022-09-16T00:28:51.879Z,100.00
2022-09-16T00:31:18.943Z,100.00
2022-09-16T00:33:46.084Z,100.00
2022-09-16T00:36:18.633Z,100.00
2022-09-16T00:38:45.895Z,100.00
2022-09-16T00:41:39.274Z,100.00
2022-09-16T00:44:52.137Z,100.00
2022-09-16T00:47:42.327Z,100.00
2022-09-16T00:50:51.390Z,100.00
2022-09-16T00:53:23.383Z,100.00
2022-09-16T00:55:53.360Z,100.00
2022-09-16T00:58:57.299Z,100.00
2022-09-16T01:01:39.054Z,100.00
2022-09-16T01:04:17.139Z,100.00
2022-09-16T01:06:44.135Z,100.00
2022-09-16T01:09:11.016Z,100.00
2022-09-16T01:11:58.293Z,100.00
2022-09-16T01:15:02.323Z,100.00
2022-09-16T01:17:45.827Z,100.00
2022-09-16T01:20:37.349Z,100.00
2022-09-16T01:23:41.952Z,100.00
2022-09-16T01:26:21.030Z,100.00
2022-09-16T01:29:05.700Z,100.00
2022-09-16T01:31:47.693Z,100.00
2022-09-16T01:34:34.436Z,100.00
2022-09-16T01:37:12.607Z,100.00
2022-09-16T01:39:39.460Z,100.00
2022-09-16T01:42:12.998Z,100.00
2022-09-16T01:44:54.996Z,100.00
2022-09-16T01:47:31.085Z,100.00
2022-09-16T01:50:22.929Z,100.00
2022-09-16T01:53:25.355Z,100.00
2022-09-16T01:56:16.422Z,100.00
2022-09-16T01:59:11.322Z,100.00
2022-09-16T02:02:05.410Z,100.00
2022-09-16T02:04:40.623Z,100.00
2022-09-16T02:07:31.323Z,100.00
2022-09-16T02:10:36.301Z,100.00
2022-09-16T02:13:42.330Z,100.00
2022-09-16T02:16:47.049Z,100.00
2022-09-16T02:19:20.869Z,100.00
2022-09-16T02:21:49.689Z,100.00
2022-09-16T02:24:19.651Z,100.00
2022-09-16T02:27:02.984Z,100.00
2022-09-16T02:29:43.830Z,100.00
2022-09-16T02:32:12.998Z,100.00
2022-09-16T02:34:47.300Z,100.00
2022-09-16T02:37:18.230Z,100.00
2022-09-16T02:39:49.259Z,100.00
2022-09-16T02:42:16.956Z,100.00
2022-09-16T02:44:46.975Z,100.00
2022-09-16T02:47:50.353Z,100.00
2022-09-16T02:51:03.400Z,100.00
2022-09-16T02:53:53.591Z,100.00
2022-09-16T02:56:27.417Z,100.00
2022-09-16T02:59:16.333Z,100.00
2022-09-16T03:02:17.374Z,100.00
2022-09-16T03:04:57.903Z,100.00
2022-09-16T03:07:24.800Z,100.00
2022-09-16T03:10:12.342Z,100.00
2022-09-16T03:13:25.413Z,100.00
2022-09-16T03:16:18.153Z,100.00
2022-09-16T03:18:45.212Z,100.00
2022-09-16T03:21:40.377Z,100.00
2022-09-16T03:24:47.264Z,100.00
2022-09-16T03:27:29.514Z,100.00
2022-09-16T03:30:03.494Z,100.00
2022-09-16T03:32:39.254Z,100.00
2022-09-16T03:35:09.772Z,100.00
2022-09-16T03:37:39.829Z,100.00
2022-09-16T03:40:14.867Z,100.00
2022-09-16T03:42:43.609Z,100.00
2022-09-16T03:45:21.035Z,100.00
2022-09-16T03:47:50.433Z,100.00
2022-09-16T03:50:37.442Z,100.00
2022-09-16T03:53:38.399Z,100.00
2022-09-16T03:56:20.812Z,100.00
2022-09-16T03:59:07.414Z,100.00
2022-09-16T04:01:48.226Z,100.00
2022-09-16T04:04:15.142Z,100.00
2022-09-16T04:06:42.249Z,100.00
2022-09-16T04:09:12.233Z,100.00
2022-09-16T04:11:59.383Z,100.00
2022-09-16T04:15:01.005Z,100.00
2022-09-16T04:17:41.932Z,100.00
2022-09-16T04:20:30.389Z,100.00
2022-09-16T04:23:18.645Z,100.00
2022-09-16T04:25:45.577Z,100.00
2022-09-16T04:28:12.427Z,100.00
2022-09-16T04:30:39.394Z,100.00
2022-09-16T04:33:06.283Z,100.00
2022-09-16T04:35:33.371Z,100.00
2022-09-16T04:38:00.299Z,100.00
2022-09-16T04:40:27.576Z,100.00
2022-09-16T04:42:54.481Z,100.00
2022-09-16T04:45:21.347Z,100.00
2022-09-16T04:47:48.287Z,100.00
2022-09-16T04:50:15.157Z,100.00
2022-09-16T04:53:03.409Z,100.00
2022-09-16T04:56:04.444Z,100.00
2022-09-16T04:59:07.507Z,100.00
2022-09-16T05:01:48.028Z,100.00
2022-09-16T05:04:35.414Z,100.00
2022-09-16T05:07:16.165Z,100.00
2022-09-16T05:10:03.452Z,100.00
2022-09-16T05:13:05.438Z,100.00
2022-09-16T05:15:58.529Z,100.00
2022-09-16T05:18:25.345Z,100.00
2022-09-16T05:20:57.447Z,100.00
2022-09-16T05:23:24.408Z,100.00
2022-09-16T05:25:51.710Z,100.00
2022-09-16T05:28:18.632Z,100.00
2022-09-16T05:30:45.550Z,100.00
2022-09-16T05:33:12.553Z,100.00
2022-09-16T05:35:39.552Z,100.00
2022-09-16T05:38:06.319Z,100.00
2022-09-16T05:40:33.396Z,100.00
2022-09-16T05:43:00.329Z,100.00
2022-09-16T05:45:32.060Z,100.00
2022-09-16T05:48:19.465Z,100.00
2022-09-16T05:51:05.135Z,100.00
2022-09-16T05:53:52.432Z,100.00
2022-09-16T05:56:53.446Z,100.00
2022-09-16T05:59:54.415Z,100.00
2022-09-16T06:02:35.091Z,100.00
2022-09-16T06:05:02.324Z,100.00
2022-09-16T06:07:29.148Z,100.00
2022-09-16T06:09:56.290Z,100.00
2022-09-16T06:12:23.260Z,100.00
2022-09-16T06:14:50.124Z,100.00
2022-09-16T06:17:17.000Z,100.00
2022-09-16T06:19:43.945Z,100.00
2022-09-16T06:22:11.045Z,100.00
2022-09-16T06:24:58.447Z,100.00
2022-09-16T06:27:39.137Z,100.00
2022-09-16T06:30:06.350Z,100.00
2022-09-16T06:32:33.433Z,100.00
2022-09-16T06:35:00.365Z,96.76
2022-09-16T06:37:27.233Z,98.30
2022-09-16T06:40:14.615Z,100.00
2022-09-16T06:42:59.966Z,97.94
2022-09-16T06:45:29.387Z,98.89
2022-09-16T06:47:59.954Z,96.42
2022-09-16T06:50:27.114Z,92.88
2022-09-16T06:52:53.980Z,90.11
2022-09-16T06:55:41.559Z,98.77
2022-09-16T06:58:46.635Z,98.34
2022-09-16T07:01:47.592Z,89.39
2022-09-16T07:04:28.290Z,89.49
2022-09-16T07:07:09.108Z,93.23
2022-09-16T07:09:37.183Z,95.65
2022-09-16T07:12:24.605Z,95.10
2022-09-16T07:15:05.586Z,94.29
2022-09-16T07:17:32.614Z,88.92
2022-09-16T07:19:59.602Z,86.29
2022-09-16T07:22:26.502Z,86.26
2022-09-16T07:24:54.297Z,88.76
2022-09-16T07:27:21.148Z,91.01
2022-09-16T07:29:47.953Z,91.90
2022-09-16T07:32:15.662Z,92.21
2022-09-16T07:34:42.485Z,88.64
2022-09-16T07:37:09.414Z,85.93
2022-09-16T07:39:58.763Z,90.91
2022-09-16T07:42:39.818Z,92.21
2022-09-16T07:45:07.278Z,93.20
2022-09-16T07:47:54.535Z,92.79
2022-09-16T07:50:55.513Z,93.24
2022-09-16T07:53:47.028Z,96.54
2022-09-16T07:56:50.526Z,97.25
2022-09-16T07:59:43.537Z,93.07
2022-09-16T08:02:44.563Z,94.35
2022-09-16T08:05:25.070Z,98.31
2022-09-16T08:07:51.864Z,97.22
2022-09-16T08:10:18.934Z,95.84
2022-09-16T08:12:48.895Z,94.28
2022-09-16T08:15:15.826Z,94.19
2022-09-16T08:17:42.784Z,88.20
2022-09-16T08:20:30.552Z,84.39
2022-09-16T08:23:19.050Z,82.10
2022-09-16T08:25:47.096Z,82.42
2022-09-16T08:28:17.634Z,83.13
2022-09-16T08:30:44.525Z,83.43
2022-09-16T08:33:11.414Z,85.41
2022-09-16T08:35:38.903Z,85.07
2022-09-16T08:38:06.025Z,81.73
2022-09-16T08:40:36.327Z,79.99
2022-09-16T08:43:14.550Z,79.12
2022-09-16T08:45:55.019Z,79.62
2022-09-16T08:48:28.555Z,78.78
2022-09-16T08:50:58.505Z,80.02
2022-09-16T08:53:56.547Z,80.12
2022-09-16T08:57:00.597Z,82.03
2022-09-16T09:00:11.582Z,84.32
2022-09-16T09:03:30.583Z,80.25
2022-09-16T09:06:35.882Z,85.86
2022-09-16T09:09:20.965Z,82.42
2022-09-16T09:12:11.296Z,86.50
2022-09-16T09:15:30.537Z,80.73
2022-09-16T09:18:24.490Z,82.11
2022-09-16T09:21:22.200Z,85.18
2022-09-16T09:24:31.599Z,80.74
2022-09-16T09:27:51.573Z,81.39
2022-09-16T09:30:35.307Z,84.46
2022-09-16T09:33:46.526Z,83.04
2022-09-16T09:36:33.092Z,77.61
2022-09-16T09:39:31.576Z,74.98
2022-09-16T09:42:37.427Z,73.63
2022-09-16T09:45:24.009Z,74.09
2022-09-16T09:48:13.539Z,83.56
2022-09-16T09:50:49.107Z,79.58
2022-09-16T09:53:51.619Z,73.27
2022-09-16T09:56:57.635Z,72.29
2022-09-16T10:00:18.598Z,73.02
2022-09-16T10:03:12.216Z,72.40
2022-09-16T10:06:00.594Z,71.08
2022-09-16T10:09:05.625Z,65.99
2022-09-16T10:11:49.624Z,66.66
2022-09-16T10:14:37.974Z,67.52
2022-09-16T10:17:15.196Z,64.73
2022-09-16T10:20:05.855Z,70.82
2022-09-16T10:22:35.419Z,68.06
2022-09-16T10:25:21.202Z,71.16
2022-09-16T10:28:14.731Z,75.10
2022-09-16T10:31:15.702Z,73.26
2022-09-16T10:34:11.511Z,70.69
2022-09-16T10:36:38.403Z,69.46
2022-09-16T10:39:06.010Z,76.05
2022-09-16T10:41:48.083Z,74.03
2022-09-16T10:44:21.973Z,69.97
2022-09-16T10:46:57.312Z,75.60
2022-09-16T10:50:00.671Z,74.25
2022-09-16T10:52:45.948Z,71.73
2022-09-16T10:55:44.635Z,68.44
2022-09-16T10:58:46.646Z,73.65
2022-09-16T11:02:01.181Z,74.98
2022-09-16T11:05:13.728Z,75.67
2022-09-16T11:08:03.351Z,72.85
2022-09-16T11:10:50.551Z,70.37
2022-09-16T11:13:42.023Z,68.88
2022-09-16T11:16:44.728Z,69.45
2022-09-16T11:20:01.697Z,65.71
2022-09-16T11:23:08.675Z,70.11
2022-09-16T11:26:46.397Z,70.87
2022-09-16T11:29:49.250Z,70.54
2022-09-16T11:32:31.753Z,72.27
2022-09-16T11:35:04.756Z,67.72
2022-09-16T11:37:54.649Z,71.00
2022-09-16T11:41:00.682Z,69.09
2022-09-16T11:44:16.969Z,69.88
2022-09-16T11:47:00.869Z,65.47
2022-09-16T11:49:33.780Z,66.31
2022-09-16T11:52:42.436Z,66.68
2022-09-16T11:55:39.660Z,66.28
2022-09-16T11:58:58.700Z,70.06
2022-09-16T12:01:44.770Z,63.72
2022-09-16T12:04:27.044Z,62.19
2022-09-16T12:07:28.794Z,63.61
2022-09-16T12:10:32.370Z,63.38
2022-09-16T12:13:10.770Z,63.72
2022-09-16T12:15:44.581Z,65.04
2022-09-16T12:18:27.592Z,64.07
2022-09-16T12:21:24.688Z,66.69
2022-09-16T12:24:32.711Z,68.13
2022-09-16T12:27:39.527Z,68.09
2022-09-16T12:30:23.658Z,63.47
2022-09-16T12:33:15.530Z,61.64
2022-09-16T12:36:08.696Z,61.81
2022-09-16T12:39:12.697Z,61.28
2022-09-16T12:42:30.950Z,62.63
2022-09-16T12:45:28.774Z,64.33
2022-09-16T12:48:56.703Z,64.81
2022-09-16T12:52:17.740Z,64.11
2022-09-16T12:55:37.725Z,63.78
2022-09-16T12:58:47.734Z,62.42
2022-09-16T13:01:35.742Z,60.72
2022-09-16T13:04:24.746Z,59.58
2022-09-16T13:07:06.526Z,57.56
2022-09-16T13:09:40.815Z,57.09
2022-09-16T13:12:44.151Z,53.77
2022-09-16T13:15:31.577Z,54.36
2022-09-16T13:18:26.653Z,55.61
2022-09-16T13:21:02.944Z,60.91
2022-09-16T13:23:34.154Z,55.50
2022-09-16T13:26:08.063Z,55.04
2022-09-16T13:28:39.285Z,52.95
2022-09-16T13:31:26.838Z,52.60
2022-09-16T13:34:31.747Z,51.16
2022-09-16T13:37:26.891Z,53.22
2022-09-16T13:39:53.861Z,52.77
2022-09-16T13:42:21.811Z,53.32
2022-09-16T13:45:08.811Z,53.77
2022-09-16T13:48:09.769Z,53.50
2022-09-16T13:50:58.068Z,54.28
2022-09-16T13:53:49.751Z,54.97
2022-09-16T13:57:21.892Z,54.92
2022-09-16T14:00:36.793Z,55.78
2022-09-16T14:03:17.327Z,54.35
2022-09-16T14:06:06.265Z,53.14
2022-09-16T14:09:13.207Z,53.51
2022-09-16T14:12:11.781Z,52.37
2022-09-16T14:14:52.459Z,52.85
2022-09-16T14:17:27.604Z,51.09
2022-09-16T14:19:59.412Z,50.85
2022-09-16T14:22:27.614Z,50.75
2022-09-16T14:25:28.861Z,49.87
2022-09-16T14:28:17.904Z,50.00
2022-09-16T14:31:19.843Z,50.46
2022-09-16T14:34:21.806Z,50.55
2022-09-16T14:37:04.373Z,51.51
2022-09-16T14:39:33.172Z,51.38
2022-09-16T14:42:07.401Z,50.66
2022-09-16T14:44:42.743Z,50.59
2022-09-16T14:47:47.462Z,48.10
2022-09-16T14:50:38.490Z,49.82
2022-09-16T14:53:09.381Z,46.93
2022-09-16T14:56:02.858Z,46.60
2022-09-16T14:59:05.884Z,45.96
2022-09-16T15:02:10.820Z,45.70
2022-09-16T15:04:56.425Z,45.77
2022-09-16T15:08:09.922Z,46.19
2022-09-16T15:11:46.439Z,48.85
2022-09-16T15:14:12.942Z,55.03
2022-09-16T15:16:57.727Z,57.08
2022-09-16T15:19:36.016Z,57.70
2022-09-16T15:22:07.611Z,59.16
2022-09-16T15:24:35.995Z,59.21
2022-09-16T15:27:03.685Z,60.53
2022-09-16T15:29:38.517Z,60.24
2022-09-16T15:32:37.817Z,60.36
2022-09-16T15:35:35.497Z,60.65
2022-09-16T15:38:12.632Z,60.44
2022-09-16T15:40:40.103Z,59.92
2022-09-16T15:43:10.133Z,58.60
2022-09-16T15:45:39.315Z,58.63
2022-09-16T15:48:21.087Z,58.68
2022-09-16T15:50:48.345Z,59.53
2022-09-16T15:53:30.495Z,59.75
2022-09-16T15:56:09.127Z,59.16
2022-09-16T15:58:59.835Z,59.84
2022-09-16T16:02:02.874Z,60.58
2022-09-16T16:05:03.843Z,61.24
2022-09-16T16:08:10.069Z,60.20
2022-09-16T16:11:07.802Z,60.34
2022-09-16T16:13:35.058Z,60.37
2022-09-16T16:16:04.366Z,60.99
2022-09-16T16:18:36.147Z,61.30
2022-09-16T16:21:14.780Z,61.68
2022-09-16T16:23:42.652Z,62.19
2022-09-16T16:26:10.919Z,62.50
2022-09-16T16:28:38.698Z,63.79
2022-09-16T16:31:15.298Z,63.96
2022-09-16T16:34:02.892Z,64.30
2022-09-16T16:36:43.514Z,64.05
2022-09-16T16:39:10.624Z,64.34
2022-09-16T16:41:37.525Z,65.16
2022-09-16T16:44:04.475Z,66.07
2022-09-16T16:46:31.476Z,66.68
2022-09-16T16:48:58.313Z,66.57
2022-09-16T16:51:25.314Z,66.55
2022-09-16T16:54:11.979Z,67.73
2022-09-16T16:56:53.260Z,70.10
2022-09-16T16:59:40.912Z,70.45
2022-09-16T17:02:21.452Z,70.28
2022-09-16T17:04:48.464Z,69.84
2022-09-16T17:07:35.894Z,71.42
2022-09-16T17:10:36.888Z,71.67
2022-09-16T17:13:17.469Z,74.05
2022-09-16T17:15:44.480Z,75.29
2022-09-16T17:18:11.421Z,75.44
2022-09-16T17:20:38.385Z,75.37
2022-09-16T17:23:05.802Z,75.60
2022-09-16T17:25:33.685Z,78.66
2022-09-16T17:28:00.550Z,76.86
2022-09-16T17:30:27.948Z,78.08
2022-09-16T17:33:14.963Z,79.32
2022-09-16T17:36:04.430Z,79.79
2022-09-16T17:38:32.069Z,79.53
2022-09-16T17:41:08.273Z,81.63
2022-09-16T17:43:35.571Z,80.61
2022-09-16T17:46:05.583Z,81.10
2022-09-16T17:48:49.028Z,82.03
2022-09-16T17:51:31.183Z,81.73
2022-09-16T17:53:59.205Z,82.05
2022-09-16T17:56:26.282Z,82.60
2022-09-16T17:59:12.935Z,82.71
2022-09-16T18:02:15.929Z,82.79
2022-09-16T18:05:17.017Z,83.09
2022-09-16T18:08:18.916Z,83.97
2022-09-16T18:11:20.935Z,83.91
2022-09-16T18:13:48.932Z,84.82
2022-09-16T18:16:19.167Z,84.23
2022-09-16T18:18:50.128Z,84.92
2022-09-16T18:21:19.677Z,84.92
2022-09-16T18:23:54.575Z,85.41
2022-09-16T18:26:21.526Z,86.45
2022-09-16T18:29:19.894Z,87.36
2022-09-16T18:31:36.644Z,92.06
2022-09-16T18:34:23.981Z,90.46
2022-09-16T18:37:04.535Z,89.63
2022-09-16T18:39:31.489Z,90.16
2022-09-16T18:42:18.987Z,90.99
2022-09-16T18:44:59.565Z,92.12
2022-09-16T18:47:46.953Z,92.13
2022-09-16T18:50:27.507Z,91.92
2022-09-16T18:52:54.516Z,92.68
2022-09-16T18:55:21.377Z,91.09
2022-09-16T18:58:07.999Z,92.33
2022-09-16T19:00:57.836Z,90.35
2022-09-16T19:03:24.653Z,90.62
2022-09-16T19:05:56.448Z,91.92
2022-09-16T19:08:23.463Z,90.61
2022-09-16T19:10:50.507Z,90.29
2022-09-16T19:13:17.418Z,89.97
2022-09-16T19:15:44.411Z,90.55
2022-09-16T19:18:13.197Z,90.41
2022-09-16T19:20:44.385Z,90.45
2022-09-16T19:23:11.392Z,89.84
2022-09-16T19:25:38.221Z,88.52
2022-09-16T19:28:05.120Z,90.64
2022-09-16T19:30:32.044Z,90.28
2022-09-16T19:33:18.974Z,90.74
2022-09-16T19:36:19.071Z,91.02
2022-09-16T19:38:59.659Z,89.85
2022-09-16T19:41:30.105Z,88.65
2022-09-16T19:44:00.629Z,88.17
2022-09-16T19:46:29.445Z,88.30
2022-09-16T19:48:56.872Z,89.05
2022-09-16T19:51:25.044Z,89.97
2022-09-16T19:53:53.546Z,91.30
2022-09-16T19:56:23.531Z,90.76
2022-09-16T19:59:11.038Z,90.46
2022-09-16T20:01:51.673Z,91.09
2022-09-16T20:04:20.964Z,90.36
2022-09-16T20:06:49.892Z,88.85
2022-09-16T20:09:17.477Z,90.00
2022-09-16T20:11:45.995Z,91.83
2022-09-16T20:14:16.274Z,92.57
2022-09-16T20:16:43.786Z,94.80
2022-09-16T20:19:13.722Z,92.81
2022-09-16T20:21:42.378Z,90.89
2022-09-16T20:24:15.732Z,90.79
2022-09-16T20:26:42.766Z,90.07
2022-09-16T20:29:31.036Z,87.92
2022-09-16T20:32:32.013Z,89.91
2022-09-16T20:35:20.449Z,89.75
2022-09-16T20:37:47.412Z,89.75
2022-09-16T20:40:14.663Z,89.09
2022-09-16T20:42:41.525Z,91.46
2022-09-16T20:45:28.095Z,91.72
2022-09-16T20:48:29.045Z,93.61
2022-09-16T20:51:33.062Z,91.89
2022-09-16T20:54:15.235Z,92.04
2022-09-16T20:56:44.715Z,91.54
2022-09-16T20:59:32.060Z,90.62
2022-09-16T21:02:12.707Z,89.48
2022-09-16T21:04:39.725Z,89.74
2022-09-16T21:07:06.611Z,88.31
2022-09-16T21:09:33.507Z,87.73
2022-09-16T21:12:00.352Z,87.19
2022-09-16T21:14:27.217Z,87.11
2022-09-16T21:16:54.370Z,89.33
2022-09-16T21:19:21.272Z,89.77
2022-09-16T21:21:48.569Z,91.13
2022-09-16T21:24:36.045Z,90.92
2022-09-16T21:27:16.947Z,89.09
2022-09-16T21:29:43.865Z,90.37
2022-09-16T21:32:31.117Z,88.86
2022-09-16T21:36:09.942Z,90.17
2022-09-16T21:39:13.286Z,88.83
2022-09-16T21:42:15.087Z,90.56
2022-09-16T21:45:16.104Z,92.09
2022-09-16T21:48:17.081Z,91.59
2022-09-16T21:51:20.222Z,92.77
2022-09-16T21:54:23.096Z,94.04
2022-09-16T21:57:03.525Z,93.15
2022-09-16T21:59:50.098Z,100.00
2022-09-16T22:02:30.810Z,100.00
2022-09-16T22:05:18.155Z,100.00
2022-09-16T22:08:03.203Z,100.00
2022-09-16T22:10:30.415Z,100.00
2022-09-16T22:12:57.306Z,100.00
2022-09-16T22:15:24.363Z,100.00
2022-09-16T22:18:11.125Z,100.00
2022-09-16T22:20:52.535Z,100.00
2022-09-16T22:23:20.227Z,100.00
2022-09-16T22:25:47.457Z,100.00
2022-09-16T22:28:14.507Z,100.00
2022-09-16T22:30:41.757Z,100.00
2022-09-16T22:33:09.217Z,100.00
2022-09-16T22:35:36.448Z,100.00
2022-09-16T22:38:23.100Z,100.00
2022-09-16T22:41:11.117Z,100.00
2022-09-16T22:43:40.183Z,98.00
2022-09-16T22:46:34.176Z,94.74
2022-09-16T22:49:35.144Z,94.05
2022-09-16T22:52:15.714Z,93.67
2022-09-16T22:55:03.133Z,92.68
2022-09-16T22:58:04.132Z,90.30
2022-09-16T23:00:58.860Z,89.08
2022-09-16T23:03:25.687Z,89.93
2022-09-16T23:06:15.147Z,93.08
2022-09-16T23:08:56.811Z,93.45
2022-09-16T23:11:27.087Z,96.21
2022-09-16T23:13:54.921Z,95.73
2022-09-16T23:16:28.950Z,93.08
2022-09-16T23:18:58.146Z,91.50
2022-09-16T23:21:25.554Z,91.86
2022-09-16T23:23:55.371Z,93.16
2022-09-16T23:26:34.425Z,90.87
2022-09-16T23:29:02.817Z,89.67
2022-09-16T23:31:32.559Z,90.40
2022-09-16T23:34:34.162Z,92.40
2022-09-16T23:37:14.894Z,94.19
2022-09-16T23:40:02.236Z,97.03
2022-09-16T23:43:03.194Z,98.91
2022-09-16T23:45:59.605Z,98.63
2022-09-16T23:48:26.480Z,98.60
2022-09-16T23:50:53.548Z,100.00
2022-09-16T23:53:40.190Z,100.00
2022-09-16T23:56:41.180Z,100.00
2022-09-16T23:59:42.199Z,100.00
